EDMA/AGB METAR and TAF weather

Enter ICAO airport designator
Station Type Date Time Source
EDMA METAR 2018/04/26 14:50 UTC NOAA

EDMA 261450Z 28007KT 240V310 CAVOK 13/03 Q1018


Station Type Date Time Source
EDMA Decoded METAR 2018/04/26 14:50 UTC NOAA

Augsburg, Germany (EDMA) 48-26N 010-56E 463M
Apr 26, 2018 - 10:50 AM EDT / 2018.04.26 1450 UTC
Wind: from the W (280 degrees) at 8 MPH (7 KT) (direction variable):0
Visibility: greater than 7 mile(s):0
Temperature: 55 F (13 C)
Dew Point: 37 F (3 C)
Relative Humidity: 50%
Pressure (altimeter): 30.06 in. Hg (1018 hPa)
ob: EDMA 261450Z 28007KT 240V310 CAVOK 13/03 Q1018
cycle: 15

Station Type Date Time Source
EDMA TAF 2010/02/22 13:50 UTC NOAA

METAR EDMA 221350Z 23006KT CAVOK 10/02 Q0996


Example: see airport list